Time;durP1;ratioP1;P1;durP2;ratioP2;P2;SDS_P1;SDS_P2;PMS_P1;PMS_P2;Temp;Humidity;BMP_temperature;BMP_pressure;BME280_temperature;BME280_humidity;BME280_pressure;Samples;Min_cycle;Max_cycle;Signal;HPM_P1;HPM_P2
2022/06/19 00:01:50;;;;;;;16.13;3.70;;;15.90;99.90;;;;;;5087480;28;20032;-62
2022/06/19 00:04:16;;;;;;;11.45;4.00;;;15.80;99.90;;;;;;5084423;28;20028;-63
2022/06/19 00:06:43;;;;;;;16.63;3.25;;;15.80;99.90;;;;;;5084724;28;20090;-62
2022/06/19 00:09:08;;;;;;;13.95;3.05;;;15.70;99.90;;;;;;5085182;28;20050;-62
2022/06/19 00:11:36;;;;;;;16.77;4.30;;;15.70;99.90;;;;;;5086368;28;20180;-62
2022/06/19 00:14:03;;;;;;;12.02;3.03;;;15.80;99.90;;;;;;5084299;28;20093;-62
2022/06/19 00:16:29;;;;;;;13.00;3.28;;;15.70;99.90;;;;;;5087675;28;20115;-62
2022/06/19 00:18:54;;;;;;;16.95;2.83;;;15.60;99.90;;;;;;5083016;28;20111;-63
2022/06/19 00:21:20;;;;;;;11.82;3.10;;;15.70;99.90;;;;;;5084697;28;20040;-63
2022/06/19 00:23:46;;;;;;;14.70;3.25;;;15.60;99.90;;;;;;5080026;28;20357;-63
2022/06/19 00:26:13;;;;;;;17.63;3.95;;;15.60;99.90;;;;;;5086127;28;20027;-63
2022/06/19 00:28:40;;;;;;;16.58;3.22;;;15.60;99.90;;;;;;5087959;28;20093;-63
2022/06/19 00:31:07;;;;;;;14.65;3.65;;;15.60;99.90;;;;;;5084596;28;20082;-63
2022/06/19 00:33:33;;;;;;;16.25;3.70;;;15.60;99.90;;;;;;5083970;28;20460;-63
2022/06/19 00:35:59;;;;;;;16.27;3.30;;;15.60;99.90;;;;;;5084797;28;20051;-62
2022/06/19 00:38:24;;;;;;;12.63;3.10;;;15.70;99.90;;;;;;5084247;28;20028;-63
2022/06/19 00:40:53;;;;;;;15.65;3.25;;;15.70;99.90;;;;;;5086599;28;20095;-62
2022/06/19 00:43:19;;;;;;;16.65;3.55;;;15.60;99.90;;;;;;5086708;28;20048;-63
2022/06/19 00:45:50;;;;;;;12.85;3.00;;;15.60;99.90;;;;;;5086054;28;20024;-63
2022/06/19 00:48:20;;;;;;;10.65;3.20;;;15.60;99.90;;;;;;5084006;28;20353;-63
2022/06/19 00:50:48;;;;;;;18.80;3.53;;;15.60;99.90;;;;;;5084166;28;20081;-63
2022/06/19 00:53:22;;;;;;;17.40;3.28;;;15.60;99.90;;;;;;5091247;28;20059;-63
2022/06/19 00:55:50;;;;;;;15.45;3.08;;;15.70;99.90;;;;;;5099998;28;20433;-63
2022/06/19 00:58:36;;;;;;;14.60;2.85;;;15.70;99.90;;;;;;5107025;28;20044;-63
2022/06/19 01:01:09;;;;;;;14.25;3.45;;;15.70;99.90;;;;;;5105123;28;20429;-63
2022/06/19 01:03:46;;;;;;;14.43;2.58;;;15.70;99.90;;;;;;5087379;28;20351;-63
2022/06/19 01:06:13;;;;;;;13.45;2.70;;;15.70;99.90;;;;;;5104013;28;20119;-63
2022/06/19 01:08:39;;;;;;;14.80;3.13;;;15.80;99.90;;;;;;5103113;28;20482;-64
2022/06/19 01:11:05;;;;;;;13.40;3.58;;;15.80;99.90;;;;;;5104773;28;20054;-63
2022/06/19 01:13:33;;;;;;;11.55;2.88;;;15.70;99.90;;;;;;5102831;28;20050;-63
2022/06/19 01:16:01;;;;;;;17.13;3.47;;;15.60;99.90;;;;;;5091325;28;20054;-63
2022/06/19 01:18:27;;;;;;;12.23;2.70;;;15.60;99.90;;;;;;5098710;28;20115;-63
2022/06/19 01:21:00;;;;;;;14.48;2.75;;;15.50;99.90;;;;;;5104944;28;20032;-63
2022/06/19 01:23:50;;;;;;;15.15;3.92;;;15.60;99.90;;;;;;5100343;28;20067;-63
2022/06/19 01:26:19;;;;;;;16.80;2.97;;;15.60;99.90;;;;;;5104324;28;20035;-62
2022/06/19 01:28:57;;;;;;;13.85;3.53;;;15.60;99.90;;;;;;5107094;28;20067;-63
2022/06/19 01:31:45;;;;;;;14.45;2.88;;;15.60;99.90;;;;;;5108462;28;20031;-62
2022/06/19 01:34:26;;;;;;;11.52;2.72;;;15.60;99.90;;;;;;5101464;28;20046;-62
2022/06/19 01:37:15;;;;;;;10.20;2.70;;;15.60;99.90;;;;;;5101944;28;20035;-63
2022/06/19 01:39:45;;;;;;;14.05;1.98;;;15.60;99.90;;;;;;5104484;28;20036;-63
2022/06/19 01:42:11;;;;;;;7.85;2.05;;;15.70;99.90;;;;;;5103818;28;20071;-63
2022/06/19 01:44:39;;;;;;;11.52;2.25;;;15.60;99.90;;;;;;5101435;28;20116;-62
2022/06/19 01:47:05;;;;;;;10.25;2.42;;;15.70;99.90;;;;;;5106273;28;20040;-62
2022/06/19 01:49:33;;;;;;;7.85;1.85;;;15.80;99.90;;;;;;5105141;28;20046;-60
2022/06/19 01:51:59;;;;;;;8.10;1.67;;;15.60;99.90;;;;;;5103173;28;20123;-63
2022/06/19 01:54:30;;;;;;;7.32;1.55;;;15.60;99.90;;;;;;5087356;28;20044;-62
2022/06/19 01:56:57;;;;;;;6.03;1.42;;;15.50;99.90;;;;;;5102795;28;20035;-61
2022/06/19 01:59:26;;;;;;;8.02;1.80;;;15.60;99.90;;;;;;5106378;28;20398;-61
2022/06/19 02:01:55;;;;;;;7.28;1.50;;;15.70;99.90;;;;;;5106502;28;20023;-62
2022/06/19 02:04:23;;;;;;;10.55;2.38;;;15.60;99.90;;;;;;5102858;28;20403;-62
2022/06/19 02:06:55;;;;;;;10.07;2.72;;;15.60;99.90;;;;;;5103722;28;20028;-62
2022/06/19 02:09:22;;;;;;;7.25;1.52;;;15.60;99.90;;;;;;5103592;28;20048;-63
2022/06/19 02:11:49;;;;;;;8.80;2.25;;;15.70;99.90;;;;;;5098869;28;20574;-62
2022/06/19 02:14:16;;;;;;;8.80;2.13;;;15.60;99.90;;;;;;5105827;28;20078;-62
2022/06/19 02:16:44;;;;;;;11.68;2.30;;;15.60;99.90;;;;;;5111932;28;20051;-62
2022/06/19 02:19:10;;;;;;;10.88;2.70;;;15.40;99.90;;;;;;5105877;28;20071;-63
2022/06/19 02:21:43;;;;;;;9.57;2.03;;;15.40;99.90;;;;;;5108095;28;20032;-63
2022/06/19 02:24:11;;;;;;;7.35;2.17;;;15.30;99.90;;;;;;5102051;28;20426;-63
2022/06/19 02:26:39;;;;;;;11.23;2.55;;;15.30;99.90;;;;;;5109282;28;20035;-62
2022/06/19 02:29:09;;;;;;;10.60;2.00;;;15.30;99.90;;;;;;5108599;28;20043;-63
2022/06/19 02:31:37;;;;;;;10.30;2.22;;;15.30;99.90;;;;;;5110738;28;20039;-62
2022/06/19 02:34:07;;;;;;;9.80;2.22;;;15.40;99.90;;;;;;5108878;28;20359;-61
2022/06/19 02:36:45;;;;;;;10.52;2.28;;;15.50;99.90;;;;;;5106981;28;20131;-61
2022/06/19 02:39:26;;;;;;;9.35;1.77;;;15.50;99.90;;;;;;5105585;28;20032;-62
2022/06/19 02:42:10;;;;;;;7.38;2.03;;;15.50;99.90;;;;;;5108278;28;20043;-62
2022/06/19 02:44:41;;;;;;;9.10;2.28;;;15.50;99.90;;;;;;5101652;28;20066;-61
2022/06/19 02:47:08;;;;;;;11.23;2.25;;;15.40;99.90;;;;;;5106609;28;20036;-62
2022/06/19 02:49:35;;;;;;;11.05;2.78;;;15.30;99.90;;;;;;5106184;28;20044;-61
2022/06/19 02:52:02;;;;;;;17.00;2.45;;;15.40;99.90;;;;;;5106424;28;20047;-62
2022/06/19 02:54:28;;;;;;;12.20;2.67;;;15.40;99.90;;;;;;5100788;28;20048;-61
2022/06/19 02:56:54;;;;;;;13.45;2.95;;;15.30;99.90;;;;;;5106282;28;20101;-62
2022/06/19 02:59:19;;;;;;;12.40;2.53;;;15.20;99.90;;;;;;5109968;28;20039;-63
2022/06/19 03:01:45;;;;;;;12.02;2.35;;;15.20;99.90;;;;;;5108193;28;20089;-61
2022/06/19 03:04:20;;;;;;;16.08;3.22;;;15.20;99.90;;;;;;5106218;28;20114;-62
2022/06/19 03:06:46;;;;;;;11.40;2.75;;;15.20;99.90;;;;;;5105885;28;20036;-61
2022/06/19 03:09:12;;;;;;;13.10;2.40;;;15.20;99.90;;;;;;5106557;28;20024;-63
2022/06/19 03:11:37;;;;;;;10.15;2.45;;;15.20;99.90;;;;;;5106777;28;20115;-62
2022/06/19 03:14:03;;;;;;;12.95;2.70;;;15.10;99.90;;;;;;5108119;28;20115;-62
2022/06/19 03:16:29;;;;;;;13.60;2.90;;;15.10;99.90;;;;;;5108789;28;20110;-62
2022/06/19 03:18:54;;;;;;;12.75;2.97;;;15.20;99.90;;;;;;5105169;28;20039;-62
2022/06/19 03:21:20;;;;;;;13.30;3.25;;;15.10;99.90;;;;;;5106164;28;20152;-62
2022/06/19 03:23:46;;;;;;;13.80;3.20;;;15.10;99.90;;;;;;5104743;28;20036;-62
2022/06/19 03:26:11;;;;;;;13.32;2.80;;;15.10;99.90;;;;;;5106644;28;20036;-61
2022/06/19 03:28:37;;;;;;;10.63;2.60;;;15.20;99.90;;;;;;5109578;28;20067;-63
2022/06/19 03:31:02;;;;;;;12.32;2.75;;;15.40;99.90;;;;;;5108499;28;20039;-62
2022/06/19 03:33:28;;;;;;;15.40;3.03;;;15.40;99.90;;;;;;5105925;28;20044;-62
2022/06/19 03:35:54;;;;;;;12.35;3.58;;;15.20;99.90;;;;;;5106523;28;20468;-62
2022/06/19 03:38:20;;;;;;;14.63;3.05;;;15.30;99.90;;;;;;5105237;28;20051;-62
2022/06/19 03:40:46;;;;;;;14.70;2.58;;;15.20;99.90;;;;;;5109235;28;20042;-61
2022/06/19 03:43:11;;;;;;;15.60;3.00;;;15.10;99.90;;;;;;5104430;28;20044;-62
2022/06/19 03:45:37;;;;;;;15.20;3.03;;;15.10;99.90;;;;;;5106480;28;20023;-61
2022/06/19 03:48:03;;;;;;;15.63;3.28;;;15.10;99.90;;;;;;5104714;28;20093;-62
2022/06/19 03:50:29;;;;;;;14.38;2.90;;;15.10;99.90;;;;;;5105826;28;20464;-62
2022/06/19 03:52:54;;;;;;;15.02;2.97;;;15.10;99.90;;;;;;5106650;28;20071;-62
2022/06/19 03:55:20;;;;;;;16.83;3.13;;;15.10;99.90;;;;;;5108574;28;20480;-63
2022/06/19 03:57:46;;;;;;;17.15;2.58;;;15.00;99.90;;;;;;5106899;28;20079;-63
2022/06/19 04:00:17;;;;;;;13.88;3.35;;;15.00;99.90;;;;;;5105498;28;20043;-62
2022/06/19 04:02:44;;;;;;;15.05;3.03;;;14.90;99.90;;;;;;5107557;28;20036;-62
2022/06/19 04:05:11;;;;;;;14.98;2.67;;;14.80;99.90;;;;;;5105419;28;20028;-62
2022/06/19 04:07:48;;;;;;;13.90;2.80;;;14.80;99.90;;;;;;5105815;28;20471;-62
2022/06/19 04:10:16;;;;;;;12.18;2.35;;;14.80;99.90;;;;;;5102346;28;20040;-62
2022/06/19 04:12:41;;;;;;;11.05;2.45;;;14.80;99.90;;;;;;5093058;28;20057;-62
2022/06/19 04:15:09;;;;;;;9.25;2.50;;;14.80;99.90;;;;;;5103622;28;20027;-61
2022/06/19 04:17:36;;;;;;;9.45;1.90;;;15.00;99.90;;;;;;5104231;28;20032;-62
2022/06/19 04:20:02;;;;;;;12.02;2.70;;;14.90;99.90;;;;;;5105351;28;20111;-62
2022/06/19 04:22:28;;;;;;;15.90;3.30;;;14.80;99.90;;;;;;5105725;28;20482;-62
2022/06/19 04:24:54;;;;;;;13.88;2.83;;;14.80;99.90;;;;;;5103806;28;20043;-63
2022/06/19 04:27:19;;;;;;;11.75;2.40;;;14.80;99.90;;;;;;5107879;28;20040;-63
2022/06/19 04:29:45;;;;;;;10.15;2.30;;;14.80;99.90;;;;;;5106940;28;20092;-62
2022/06/19 04:32:11;;;;;;;12.77;2.53;;;14.90;99.90;;;;;;5104962;28;20035;-63
2022/06/19 04:34:36;;;;;;;10.90;2.30;;;14.90;99.90;;;;;;5102826;28;20439;-62
2022/06/19 04:37:02;;;;;;;13.40;2.17;;;14.90;99.90;;;;;;5104609;28;20032;-62
2022/06/19 04:39:28;;;;;;;9.77;2.15;;;14.80;99.90;;;;;;5106990;28;20114;-63
2022/06/19 04:41:53;;;;;;;13.45;2.53;;;14.80;99.90;;;;;;5107272;28;20035;-62
2022/06/19 04:44:20;;;;;;;11.95;2.58;;;14.90;99.90;;;;;;5101481;28;20043;-63
2022/06/19 04:46:45;;;;;;;9.77;2.50;;;15.00;99.90;;;;;;5106884;28;20043;-63
2022/06/19 04:49:13;;;;;;;11.88;2.25;;;15.00;99.90;;;;;;5072813;28;20024;-63
2022/06/19 04:51:39;;;;;;;12.05;2.25;;;15.00;99.90;;;;;;5104763;28;20107;-64
2022/06/19 04:54:05;;;;;;;12.70;2.22;;;15.00;99.90;;;;;;5102920;28;20126;-62
2022/06/19 04:56:31;;;;;;;9.25;2.55;;;15.00;99.90;;;;;;5104803;28;20043;-63
2022/06/19 04:58:57;;;;;;;9.18;2.30;;;15.20;99.90;;;;;;5091769;28;20120;-62
2022/06/19 05:01:25;;;;;;;13.23;2.33;;;15.20;99.90;;;;;;5092844;28;20047;-64
2022/06/19 05:03:53;;;;;;;14.30;2.13;;;15.20;99.90;;;;;;5105342;28;20083;-62
2022/06/19 05:06:19;;;;;;;11.77;2.97;;;15.30;99.90;;;;;;5107435;28;20324;-63
2022/06/19 05:08:45;;;;;;;12.52;2.60;;;15.20;99.90;;;;;;5103505;28;20032;-64
2022/06/19 05:11:12;;;;;;;10.65;2.58;;;15.20;99.90;;;;;;5106163;28;20745;-63
2022/06/19 05:13:37;;;;;;;13.13;2.50;;;15.20;99.90;;;;;;5104633;28;20456;-62
2022/06/19 05:16:06;;;;;;;10.88;2.50;;;15.10;99.90;;;;;;5103829;28;20051;-63
2022/06/19 05:18:34;;;;;;;9.40;2.38;;;15.10;99.90;;;;;;5105455;28;20076;-63
2022/06/19 05:21:01;;;;;;;10.18;2.22;;;14.90;99.90;;;;;;5104723;28;20453;-63
2022/06/19 05:23:31;;;;;;;13.05;3.00;;;14.90;99.90;;;;;;5102192;28;20050;-62
2022/06/19 05:25:59;;;;;;;11.93;2.30;;;15.20;99.90;;;;;;5092526;28;20058;-62
2022/06/19 05:28:25;;;;;;;14.38;2.95;;;14.80;99.90;;;;;;5105574;28;20074;-63
2022/06/19 05:30:51;;;;;;;10.80;2.80;;;14.70;99.90;;;;;;5091261;28;20035;-63
2022/06/19 05:33:17;;;;;;;11.20;3.03;;;14.60;99.90;;;;;;5105445;28;20318;-62
2022/06/19 05:35:42;;;;;;;11.52;2.40;;;14.50;99.90;;;;;;5103902;28;20097;-62
2022/06/19 05:38:12;;;;;;;14.07;2.70;;;14.50;99.90;;;;;;5104105;28;20123;-62
2022/06/19 05:40:38;;;;;;;17.30;3.38;;;14.50;99.90;;;;;;5104694;28;20480;-62
2022/06/19 05:43:03;;;;;;;17.05;2.75;;;14.50;99.90;;;;;;5103260;28;20090;-62
2022/06/19 05:45:29;;;;;;;14.90;2.75;;;14.60;99.90;;;;;;5106197;28;20028;-64
2022/06/19 05:47:54;;;;;;;9.90;2.50;;;14.60;99.90;;;;;;5106835;28;20028;-62
2022/06/19 05:50:20;;;;;;;7.97;2.30;;;14.60;99.90;;;;;;5109538;28;20352;-62
2022/06/19 05:52:46;;;;;;;11.88;2.80;;;14.80;99.90;;;;;;5103676;28;20101;-64
2022/06/19 05:55:13;;;;;;;12.13;2.80;;;15.00;99.90;;;;;;5087770;28;20051;-62
2022/06/19 05:57:39;;;;;;;12.73;2.83;;;15.10;99.90;;;;;;5089336;28;20043;-63
2022/06/19 06:00:08;;;;;;;12.38;2.70;;;15.10;99.90;;;;;;5089867;28;20403;-62
2022/06/19 06:02:35;;;;;;;14.20;2.90;;;15.00;99.90;;;;;;5089649;28;20040;-62
2022/06/19 06:05:02;;;;;;;12.98;2.63;;;15.00;99.90;;;;;;5087985;28;20058;-63
2022/06/19 06:07:28;;;;;;;12.85;2.65;;;14.90;99.90;;;;;;5075493;28;20334;-62
2022/06/19 06:09:53;;;;;;;9.88;2.42;;;15.00;99.90;;;;;;5074182;28;20089;-63
2022/06/19 06:12:19;;;;;;;11.20;2.78;;;14.90;99.90;;;;;;5087184;28;20110;-62
2022/06/19 06:14:45;;;;;;;11.30;2.30;;;15.00;99.90;;;;;;5069003;28;20068;-62
2022/06/19 06:17:11;;;;;;;11.13;2.45;;;15.00;99.90;;;;;;5088328;28;20101;-62
2022/06/19 06:19:36;;;;;;;12.32;2.58;;;15.10;99.90;;;;;;5089069;28;20165;-62
2022/06/19 06:22:04;;;;;;;10.45;2.40;;;15.10;99.90;;;;;;5088056;28;20032;-63
2022/06/19 06:24:30;;;;;;;7.68;2.10;;;14.90;99.90;;;;;;5073505;28;20376;-61
2022/06/19 06:26:57;;;;;;;11.43;2.55;;;14.90;99.90;;;;;;5088816;28;20129;-62
2022/06/19 06:29:24;;;;;;;14.43;3.17;;;14.90;99.90;;;;;;5090760;28;20768;-62
2022/06/19 06:31:50;;;;;;;10.52;2.90;;;14.90;99.90;;;;;;5086024;28;20062;-62
2022/06/19 06:34:16;;;;;;;12.80;2.70;;;15.10;99.90;;;;;;5085471;28;20449;-62
2022/06/19 06:36:42;;;;;;;9.52;2.22;;;15.10;99.90;;;;;;5088812;28;20051;-63
2022/06/19 06:39:09;;;;;;;9.82;2.55;;;15.00;99.90;;;;;;5087704;28;20050;-64
2022/06/19 06:41:34;;;;;;;17.75;3.50;;;15.00;99.90;;;;;;5089479;28;20365;-63
2022/06/19 06:44:00;;;;;;;12.32;3.00;;;14.90;99.90;;;;;;5090844;28;20047;-62
2022/06/19 06:46:27;;;;;;;15.85;3.15;;;14.90;99.90;;;;;;5093638;28;20512;-62
2022/06/19 06:48:56;;;;;;;16.88;3.00;;;15.00;99.90;;;;;;5092698;28;20119;-62
2022/06/19 06:51:26;;;;;;;16.90;3.72;;;15.10;99.90;;;;;;5089193;28;20346;-62
2022/06/19 06:53:53;;;;;;;12.77;2.90;;;14.90;99.90;;;;;;5100602;28;20426;-62
2022/06/19 06:56:20;;;;;;;12.30;2.78;;;14.90;99.90;;;;;;5112178;28;20357;-62
2022/06/19 06:58:47;;;;;;;15.73;3.30;;;15.10;99.90;;;;;;5095504;28;20108;-61
2022/06/19 07:01:19;;;;;;;13.60;2.97;;;15.10;99.90;;;;;;5114211;28;20101;-62
2022/06/19 07:03:49;;;;;;;12.98;3.30;;;15.10;99.90;;;;;;5110155;28;20042;-62
2022/06/19 07:06:15;;;;;;;12.50;3.25;;;15.10;99.90;;;;;;5111876;28;20127;-62
2022/06/19 07:08:41;;;;;;;14.43;3.72;;;15.00;99.90;;;;;;5109844;28;20122;-62
2022/06/19 07:11:08;;;;;;;13.52;2.60;;;15.10;99.90;;;;;;5107281;28;20046;-62
2022/06/19 07:13:34;;;;;;;17.48;4.25;;;15.10;99.90;;;;;;5108955;28;20036;-62
2022/06/19 07:16:00;;;;;;;16.67;3.17;;;15.20;99.90;;;;;;5111058;28;20036;-62
2022/06/19 07:18:25;;;;;;;14.27;2.75;;;15.10;99.90;;;;;;5111892;28;20062;-64
2022/06/19 07:20:51;;;;;;;15.52;3.25;;;15.20;99.90;;;;;;5110662;28;20062;-62
2022/06/19 07:23:17;;;;;;;13.05;3.10;;;15.20;99.90;;;;;;5110282;28;20082;-62
2022/06/19 07:25:42;;;;;;;15.60;3.10;;;15.10;99.90;;;;;;5111811;28;20466;-62
2022/06/19 07:28:14;;;;;;;14.75;3.10;;;15.20;99.90;;;;;;5095497;28;20032;-62
2022/06/19 07:30:39;;;;;;;13.25;2.97;;;15.20;99.90;;;;;;5113048;28;20040;-62
2022/06/19 07:33:05;;;;;;;13.98;2.72;;;15.10;99.90;;;;;;5108718;28;20081;-62
2022/06/19 07:35:31;;;;;;;12.95;3.70;;;15.10;99.90;;;;;;5109983;28;20380;-62
2022/06/19 07:37:56;;;;;;;15.23;3.13;;;15.10;99.90;;;;;;5109217;28;20047;-62
2022/06/19 07:40:23;;;;;;;13.00;3.13;;;15.10;99.90;;;;;;5110564;28;20372;-63
2022/06/19 07:42:48;;;;;;;13.18;2.92;;;15.10;99.90;;;;;;5109803;28;20050;-63
2022/06/19 07:45:15;;;;;;;15.65;3.10;;;15.10;99.90;;;;;;5110212;28;20028;-62
2022/06/19 07:50:26;;;;;;;16.05;3.83;;;15.20;99.90;;;;;;5111752;28;20429;-61
2022/06/19 07:52:52;;;;;;;12.35;2.90;;;15.10;99.90;;;;;;5111315;28;20040;-62
2022/06/19 07:55:22;;;;;;;13.20;3.10;;;15.10;99.90;;;;;;5110309;28;20051;-63
2022/06/19 07:57:47;;;;;;;16.58;3.55;;;15.20;99.90;;;;;;5102345;28;20040;-62
2022/06/19 08:00:18;;;;;;;13.15;2.63;;;15.30;99.90;;;;;;5111214;28;20490;-62
2022/06/19 08:02:49;;;;;;;14.25;3.42;;;15.40;99.90;;;;;;5111782;28;20051;-63
2022/06/19 08:05:16;;;;;;;16.42;3.28;;;15.50;99.90;;;;;;5107261;28;20452;-63
2022/06/19 08:07:42;;;;;;;18.27;3.20;;;15.50;99.90;;;;;;5109372;28;20043;-61
2022/06/19 08:10:09;;;;;;;14.80;3.55;;;15.50;99.90;;;;;;5109472;28;20043;-62
2022/06/19 08:12:35;;;;;;;17.00;3.30;;;15.60;99.90;;;;;;5105874;28;20097;-63
2022/06/19 08:15:00;;;;;;;12.95;3.15;;;15.80;99.90;;;;;;5088781;28;20036;-62
2022/06/19 08:17:26;;;;;;;15.48;3.47;;;15.70;99.90;;;;;;5105352;28;20044;-63
2022/06/19 08:19:52;;;;;;;14.63;3.30;;;15.60;99.90;;;;;;5107034;28;20452;-63
2022/06/19 08:22:17;;;;;;;14.23;3.28;;;15.50;99.90;;;;;;5106981;28;20039;-62
2022/06/19 08:24:43;;;;;;;16.73;3.40;;;15.50;99.90;;;;;;5103508;28;20038;-63
2022/06/19 08:27:09;;;;;;;14.13;3.17;;;15.40;99.90;;;;;;5107019;28;20201;-63
2022/06/19 08:29:35;;;;;;;16.27;3.65;;;15.30;99.90;;;;;;5107508;28;20364;-63
2022/06/19 08:32:00;;;;;;;14.32;2.95;;;15.20;99.90;;;;;;5104303;28;20191;-62
2022/06/19 08:34:27;;;;;;;16.17;3.97;;;15.40;99.90;;;;;;5102729;28;20036;-63
2022/06/19 08:36:54;;;;;;;17.08;3.50;;;15.30;99.90;;;;;;5107555;28;20042;-63
2022/06/19 08:39:20;;;;;;;17.25;3.25;;;15.30;99.90;;;;;;5103983;28;20459;-62
2022/06/19 08:42:06;;;;;;;14.57;3.33;;;15.30;99.90;;;;;;5106341;28;20027;-63
2022/06/19 08:45:05;;;;;;;17.88;3.22;;;15.20;99.90;;;;;;5099469;28;20047;-63
2022/06/19 08:48:11;;;;;;;18.85;3.30;;;15.10;99.90;;;;;;5106376;28;20039;-62
2022/06/19 08:50:54;;;;;;;12.65;3.58;;;15.00;99.90;;;;;;5108233;28;20098;-62
2022/06/19 08:53:43;;;;;;;16.17;3.05;;;15.10;99.90;;;;;;5082352;28;20054;-62
2022/06/19 08:56:18;;;;;;;14.82;2.65;;;15.20;99.90;;;;;;5090500;28;20063;-62
2022/06/19 08:58:50;;;;;;;14.90;2.47;;;15.20;99.90;;;;;;5090353;28;20044;-61
2022/06/19 09:01:41;;;;;;;11.00;2.42;;;15.20;99.90;;;;;;5087834;28;20078;-61
2022/06/19 09:07:18;;;;;;;12.98;2.95;;;15.30;99.90;;;;;;5089312;28;20032;-61
2022/06/19 09:10:17;;;;;;;12.98;2.45;;;15.40;99.90;;;;;;5089499;28;20396;-62
2022/06/19 09:13:01;;;;;;;14.10;3.25;;;15.50;99.90;;;;;;5088594;28;20472;-61
2022/06/19 09:15:39;;;;;;;11.32;2.20;;;15.50;99.90;;;;;;5088037;28;20036;-61
2022/06/19 09:18:08;;;;;;;14.60;2.88;;;15.60;99.90;;;;;;5089746;28;20058;-62
2022/06/19 09:20:44;;;;;;;12.65;2.85;;;15.60;99.90;;;;;;5088978;28;20039;-61
2022/06/19 09:23:21;;;;;;;13.23;3.00;;;15.40;99.90;;;;;;5084258;28;20036;-62
2022/06/19 09:25:53;;;;;;;12.43;2.90;;;15.40;99.90;;;;;;5088975;28;20472;-61
2022/06/19 09:28:37;;;;;;;11.85;2.58;;;15.50;99.90;;;;;;5090676;28;20640;-61
2022/06/19 09:31:19;;;;;;;13.02;2.17;;;15.50;99.90;;;;;;5089607;28;20444;-61
2022/06/19 09:33:57;;;;;;;10.25;2.35;;;15.50;99.90;;;;;;5086615;28;20173;-61
2022/06/19 09:36:32;;;;;;;14.20;2.67;;;15.50;99.90;;;;;;5087507;28;20043;-60
2022/06/19 09:39:19;;;;;;;13.15;2.38;;;15.70;99.90;;;;;;5087182;28;20047;-61
2022/06/19 09:41:59;;;;;;;9.85;2.58;;;15.70;99.90;;;;;;5090008;28;20703;-62
2022/06/19 09:44:43;;;;;;;12.65;2.65;;;15.80;99.90;;;;;;5088138;28;20292;-61
2022/06/19 09:47:12;;;;;;;;;;;15.90;99.90;;;;;;5091204;28;20031;-61
2022/06/19 09:49:53;;;;;;;10.15;2.45;;;15.90;99.90;;;;;;5081963;28;19916;-61
2022/06/19 09:52:25;;;;;;;10.95;2.58;;;16.10;99.90;;;;;;5086768;28;20198;-61
2022/06/19 09:54:59;;;;;;;10.27;2.53;;;16.30;99.90;;;;;;5078452;28;20053;-61
2022/06/19 09:57:31;;;;;;;12.80;2.28;;;16.20;99.90;;;;;;5084721;28;20135;-61
2022/06/19 10:00:10;;;;;;;13.25;2.30;;;16.20;99.90;;;;;;5085454;28;20037;-62
2022/06/19 10:02:50;;;;;;;10.38;2.40;;;16.20;99.90;;;;;;5083289;28;20036;-61
2022/06/19 10:05:45;;;;;;;10.13;2.22;;;16.20;99.90;;;;;;5077526;28;20047;-62
2022/06/19 10:08:26;;;;;;;10.20;2.58;;;16.10;99.90;;;;;;5049016;28;20048;-62
2022/06/19 10:11:02;;;;;;;11.63;2.50;;;16.10;99.90;;;;;;5084500;28;20534;-61
2022/06/19 10:13:53;;;;;;;9.77;2.50;;;16.20;99.90;;;;;;5078856;28;20098;-62
2022/06/19 10:16:46;;;;;;;9.60;2.35;;;16.40;99.90;;;;;;5081661;28;20471;-62
2022/06/19 10:19:18;;;;;;;10.27;2.33;;;16.70;99.90;;;;;;5081820;28;20312;-61
2022/06/19 10:22:15;;;;;;;10.05;2.22;;;17.10;99.90;;;;;;5084383;28;20043;-61
2022/06/19 10:25:18;;;;;;;7.65;2.17;;;17.10;99.90;;;;;;5082162;28;20066;-61
2022/06/19 10:27:53;;;;;;;8.82;2.17;;;17.40;99.90;;;;;;5085891;28;20532;-62
2022/06/19 10:30:39;;;;;;;9.60;2.10;;;17.50;99.90;;;;;;5072452;28;20093;-62
2022/06/19 10:33:11;;;;;;;9.00;2.03;;;17.60;99.90;;;;;;5087912;28;20461;-62
2022/06/19 10:35:58;;;;;;;7.50;1.88;;;17.60;99.90;;;;;;5090158;28;20043;-62
2022/06/19 10:38:45;;;;;;;6.47;1.80;;;17.90;99.90;;;;;;5070750;28;20465;-62
2022/06/19 10:44:35;;;;;;;7.15;1.80;;;18.40;99.90;;;;;;5089693;28;20040;-61
2022/06/19 10:47:22;;;;;;;7.82;1.92;;;18.50;99.90;;;;;;5093275;28;20054;-61
2022/06/19 10:49:54;;;;;;;5.95;1.75;;;18.40;99.90;;;;;;5091037;28;20095;-61
2022/06/19 10:52:30;;;;;;;5.55;1.60;;;18.50;99.90;;;;;;5092488;28;20046;-63
2022/06/19 10:55:21;;;;;;;7.18;2.38;;;18.50;99.90;;;;;;5107452;28;20047;-62
2022/06/19 10:58:08;;;;;;;7.78;2.70;;;18.40;99.90;;;;;;5111047;28;20047;-61
2022/06/19 11:00:34;;;;;;;8.85;2.25;;;18.30;99.90;;;;;;5108698;28;20360;-62
2022/06/19 11:06:13;;;;;;;6.80;1.80;;;18.00;99.90;;;;;;5110843;28;20460;-62
2022/06/19 11:08:43;;;;;;;6.30;1.58;;;17.70;99.90;;;;;;5110012;28;20077;-64
2022/06/19 11:11:14;;;;;;;6.00;1.55;;;17.70;99.90;;;;;;5110780;28;20515;-62
2022/06/19 11:14:08;;;;;;;6.68;2.03;;;17.50;99.90;;;;;;5110669;28;20516;-62
2022/06/19 11:17:13;;;;;;;7.50;1.77;;;17.50;99.90;;;;;;5111699;28;20078;-63
2022/06/19 11:19:43;;;;;;;;;;;17.70;99.90;;;;;;5113670;28;20115;-64
2022/06/19 11:22:20;;;;;;;7.03;1.73;;;17.80;99.90;;;;;;5110528;28;20305;-63
2022/06/19 11:24:46;;;;;;;6.90;1.90;;;17.90;99.90;;;;;;5111682;28;20036;-63
2022/06/19 11:27:21;;;;;;;7.40;1.92;;;18.00;99.90;;;;;;5113540;28;20053;-62
2022/06/19 11:29:50;;;;;;;7.40;2.08;;;18.00;99.90;;;;;;5113832;28;20448;-63
2022/06/19 11:32:19;;;;;;;8.80;2.28;;;17.90;99.90;;;;;;5106173;28;20047;-62
2022/06/19 11:35:01;;;;;;;5.07;1.67;;;17.90;99.90;;;;;;5103952;28;20035;-62
2022/06/19 11:37:33;;;;;;;7.65;1.88;;;17.90;99.90;;;;;;5102743;28;20036;-61
2022/06/19 11:39:58;;;;;;;6.60;1.63;;;18.10;99.90;;;;;;5108353;28;20058;-61
2022/06/19 11:42:36;;;;;;;6.88;1.65;;;18.20;99.90;;;;;;5107782;28;20447;-63
2022/06/19 11:45:14;;;;;;;8.40;1.83;;;18.30;99.90;;;;;;5107365;28;20028;-62
2022/06/19 11:47:43;;;;;;;5.97;1.52;;;18.30;99.90;;;;;;5107469;28;20032;-62
2022/06/19 11:50:12;;;;;;;7.35;1.70;;;18.30;99.90;;;;;;5103726;28;20115;-62
2022/06/19 11:52:47;;;;;;;6.18;1.70;;;18.00;99.90;;;;;;5106752;28;20051;-61
2022/06/19 11:55:31;;;;;;;6.60;1.60;;;17.90;99.90;;;;;;5108945;28;20094;-60
2022/06/19 11:58:21;;;;;;;4.63;1.80;;;17.70;99.90;;;;;;5109265;28;20036;-60
2022/06/19 12:01:10;;;;;;;6.65;1.60;;;17.70;99.90;;;;;;5095633;28;20023;-60
2022/06/19 12:03:43;;;;;;;5.78;1.30;;;17.70;99.90;;;;;;5109934;28;20079;-62
2022/06/19 12:06:11;;;;;;;6.55;1.83;;;17.70;99.90;;;;;;5106715;28;20059;-61
2022/06/19 12:08:53;;;;;;;4.88;1.38;;;17.60;99.90;;;;;;5108844;28;20119;-61
2022/06/19 12:11:35;;;;;;;4.93;1.20;;;17.70;99.90;;;;;;5110252;28;20043;-61
2022/06/19 12:14:01;;;;;;;7.68;1.35;;;17.90;99.90;;;;;;5107923;28;20156;-61
2022/06/19 12:16:27;;;;;;;5.22;1.50;;;18.30;99.90;;;;;;5093280;28;20456;-61
2022/06/19 12:18:53;;;;;;;3.30;1.10;;;18.50;99.90;;;;;;5110414;28;20133;-61
2022/06/19 12:21:35;;;;;;;3.53;1.20;;;18.50;99.90;;;;;;5110952;28;20164;-61
2022/06/19 12:24:10;;;;;;;4.38;1.23;;;18.20;99.90;;;;;;5105825;28;20040;-60
2022/06/19 12:26:39;;;;;;;4.55;1.42;;;18.50;99.90;;;;;;5113036;28;20114;-62
2022/06/19 12:29:28;;;;;;;5.82;1.20;;;18.60;99.90;;;;;;5112586;28;20035;-61
2022/06/19 12:31:59;;;;;;;5.28;1.52;;;19.10;99.90;;;;;;5089693;28;20044;-61
2022/06/19 12:34:30;;;;;;;4.57;1.42;;;19.20;99.90;;;;;;5104683;28;20043;-62
2022/06/19 12:36:59;;;;;;;3.15;1.23;;;19.30;99.90;;;;;;5110734;28;20582;-59
2022/06/19 12:39:29;;;;;;;4.25;1.08;;;19.50;99.90;;;;;;5109709;28;20028;-59
2022/06/19 12:42:25;;;;;;;4.32;1.40;;;19.70;99.90;;;;;;5112342;28;20039;-59
2022/06/19 12:45:02;;;;;;;5.22;1.40;;;19.70;99.90;;;;;;5086589;28;20039;-59
2022/06/19 12:47:55;;;;;;;4.25;1.35;;;19.90;99.90;;;;;;5107380;28;20447;-60
2022/06/19 12:50:55;;;;;;;4.90;1.40;;;19.80;99.90;;;;;;5109590;28;20111;-60
2022/06/19 12:53:39;;;;;;;5.95;1.30;;;19.70;99.90;;;;;;5105895;28;20062;-62
2022/06/19 12:56:38;;;;;;;5.10;1.63;;;19.50;99.90;;;;;;5110848;28;20082;-60
2022/06/19 12:59:09;;;;;;;5.95;1.20;;;19.50;99.90;;;;;;5109619;28;20058;-60
2022/06/19 13:02:06;;;;;;;3.53;1.08;;;19.50;99.90;;;;;;5093530;28;20356;-60
2022/06/19 13:04:57;;;;;;;4.47;1.42;;;19.70;99.90;;;;;;5105140;28;20050;-60
2022/06/19 13:07:45;;;;;;;3.80;1.17;;;19.70;99.90;;;;;;5108895;28;20027;-60
2022/06/19 13:10:11;;;;;;;4.15;1.10;;;19.70;99.90;;;;;;5104555;28;20428;-60
2022/06/19 13:13:12;;;;;;;4.65;1.40;;;19.70;99.90;;;;;;5111101;28;20044;-60
2022/06/19 13:16:00;;;;;;;4.45;1.48;;;19.90;99.90;;;;;;5103504;28;20493;-60